Terminal Aerodrome Forecast
Issued by NWS Louisville, KY

Home | Current Version | Previous Version | Text Only | Print | Product List | Glossary On
Versions: 1 2 3 4 5 6 7 8 9 10 11 12 13 14
516
FTUS43 KLMK 091120
TAFBWG
TAF
KBWG 091120Z 0912/1012 29008KT P6SM VCSH FEW016 BKN045
     FM091600 28008KT P6SM VCSH BKN025
     FM092000 29008G18KT 5SM -SHSN OVC025
     FM100700 29006KT P6SM VCSH BKN025=

USA.gov is the U.S. government's official web portal to all federal, state and local government web resources and services.